createdAt,value
2023-03-11T00:05:04.976Z,0
2023-03-11T00:10:38.470Z,0
2023-03-11T00:37:10.475Z,0
2023-03-11T00:42:28.854Z,0
2023-03-11T00:47:46.061Z,0
2023-03-11T00:53:03.348Z,0
2023-03-11T00:58:20.753Z,0
2023-03-11T01:03:38.226Z,0
2023-03-11T01:08:55.740Z,0
2023-03-11T01:14:13.124Z,0
2023-03-11T01:19:30.449Z,0
2023-03-11T01:25:04.828Z,0
2023-03-11T01:30:22.406Z,0
2023-03-11T01:35:39.715Z,0
2023-03-11T01:41:00.044Z,0
2023-03-11T01:46:17.486Z,0
2023-03-11T01:51:34.903Z,0
2023-03-11T01:56:52.525Z,0
2023-03-11T02:02:09.973Z,0
2023-03-11T02:07:29.530Z,0
2023-03-11T02:12:47.003Z,0
2023-03-11T02:18:04.365Z,0
2023-03-11T02:23:21.519Z,0
2023-03-11T02:28:38.711Z,0
2023-03-11T02:33:56.134Z,0
2023-03-11T02:39:13.552Z,0
2023-03-11T02:44:31.235Z,0
2023-03-11T02:49:57.648Z,0
2023-03-11T02:55:15.169Z,0
2023-03-11T03:00:34.687Z,0
2023-03-11T03:05:51.973Z,0
2023-03-11T03:11:17.903Z,0
2023-03-11T03:16:35.667Z,0
2023-03-11T03:21:53.081Z,0
2023-03-11T03:27:10.318Z,0
2023-03-11T03:32:27.738Z,0
2023-03-11T03:37:48.292Z,0
2023-03-11T03:43:05.611Z,0
2023-03-11T03:48:23.223Z,0
2023-03-11T03:59:07.803Z,0
2023-03-11T04:04:25.536Z,0
2023-03-11T04:09:42.934Z,0
2023-03-11T04:15:00.583Z,0
2023-03-11T04:20:20.752Z,0
2023-03-11T04:25:37.997Z,0
2023-03-11T04:30:55.580Z,0
2023-03-11T04:36:12.993Z,0
2023-03-11T04:41:30.378Z,0
2023-03-11T04:46:47.890Z,0
2023-03-11T04:52:08.204Z,0
2023-03-11T05:03:15.336Z,0
2023-03-11T05:08:32.862Z,0
2023-03-11T05:13:50.288Z,0
2023-03-11T05:19:07.720Z,0
2023-03-11T05:24:25.022Z,0
2023-03-11T05:29:42.262Z,0
2023-03-11T05:34:59.515Z,0
2023-03-11T05:40:16.820Z,0.9
2023-03-11T05:45:33.856Z,39.6
2023-03-11T05:50:53.640Z,86.7
2023-03-11T05:56:10.552Z,153.3
2023-03-11T06:01:29.954Z,249.6
2023-03-11T06:06:47.042Z,408.3
2023-03-11T06:12:06.405Z,658.3
2023-03-11T06:17:23.502Z,925
2023-03-11T06:22:40.593Z,1126.2
2023-03-11T06:27:57.424Z,1408.3
2023-03-11T06:33:14.678Z,1810.8
2023-03-11T06:38:31.876Z,2199.2
2023-03-11T06:43:49.085Z,2887.5
2023-03-11T06:49:06.190Z,2606.3
2023-03-11T06:54:23.472Z,2939.2
2023-03-11T06:59:40.717Z,3249.2
2023-03-11T07:10:18.806Z,2898.7
2023-03-11T07:15:38.888Z,2685.8
2023-03-11T07:20:55.727Z,2477.9
2023-03-11T07:26:12.554Z,2968.8
2023-03-11T07:31:29.837Z,3394.6
2023-03-11T07:36:47.249Z,4624.6
2023-03-11T07:42:05.141Z,6519.6
2023-03-11T07:47:24.254Z,10681.7
2023-03-11T07:52:41.700Z,10798.3
2023-03-11T07:57:59.027Z,11517.9
2023-03-11T08:03:16.420Z,11425
2023-03-11T08:08:33.792Z,11913.3
2023-03-11T08:13:50.716Z,12224.2
2023-03-11T08:19:08.276Z,14140
2023-03-11T08:24:25.579Z,13898.3
2023-03-11T08:29:43.183Z,14305.4
2023-03-11T08:35:00.331Z,19176.7
2023-03-11T08:40:17.618Z,23453.3
2023-03-11T08:45:37.448Z,25587.1
2023-03-11T08:50:55.111Z,26324.2
2023-03-11T08:56:12.989Z,13011.2
2023-03-11T09:01:30.661Z,10686.7
2023-03-11T09:06:48.142Z,11509.6
2023-03-11T09:12:07.696Z,10821.3
2023-03-11T09:17:24.704Z,11916.7
2023-03-11T09:22:41.911Z,11310
2023-03-11T09:28:02.890Z,16373.3
2023-03-11T09:33:27.295Z,11992.9
2023-03-11T09:38:44.709Z,15407.1
2023-03-11T09:44:02.017Z,21947.5
2023-03-11T09:49:25.263Z,19637.1
2023-03-11T09:54:43.188Z,15798.7
2023-03-11T09:59:58.930Z,22706.3
2023-03-11T10:05:16.746Z,52147.1
2023-03-11T10:10:34.264Z,17991.7
2023-03-11T10:15:58.153Z,32352.5
2023-03-11T10:21:16.498Z,23617.5
2023-03-11T10:26:41.630Z,42916.7
2023-03-11T10:32:00.202Z,22244.2
2023-03-11T10:39:53.967Z,19616.2
2023-03-11T10:45:11.098Z,23089.2
2023-03-11T10:50:27.777Z,22655
2023-03-11T10:55:46.904Z,18128.7
2023-03-11T11:01:10.835Z,16454.2
2023-03-11T11:06:28.685Z,33630.8
2023-03-11T11:11:47.561Z,21450.8
2023-03-11T11:17:03.997Z,18890.4
2023-03-11T11:22:20.279Z,12440.8
2023-03-11T11:27:36.310Z,15217.1
2023-03-11T11:32:57.623Z,46522.5
2023-03-11T11:38:16.821Z,42161.7
2023-03-11T11:43:38.359Z,45655
2023-03-11T11:48:55.263Z,22166.2
2023-03-11T11:54:11.062Z,21698.3
2023-03-11T11:59:27.787Z,22924.6
2023-03-11T12:09:56.014Z,23409.2
2023-03-11T12:20:32.346Z,26490
2023-03-11T12:25:50.294Z,28735
2023-03-11T12:31:15.329Z,29896.7
2023-03-11T12:36:33.224Z,21028.7
2023-03-11T12:41:49.365Z,23113.3
2023-03-11T12:47:05.519Z,17970.4
2023-03-11T12:52:22.445Z,24712.5
2023-03-11T12:57:40.781Z,22697.1
2023-03-11T13:02:58.687Z,26053.3
2023-03-11T13:08:15.294Z,13792.1
2023-03-11T13:13:32.936Z,25260
2023-03-11T13:18:50.179Z,22870.4
2023-03-11T13:24:29.427Z,26575.4
2023-03-11T13:29:46.329Z,21136.3
2023-03-11T13:35:03.001Z,19103.7
2023-03-11T13:40:19.947Z,20795
2023-03-11T13:45:38.280Z,22186.7
2023-03-11T13:50:55.723Z,24733.3
2023-03-11T14:01:22.476Z,23641.7
2023-03-11T14:12:05.567Z,19611.7
2023-03-11T14:17:22.643Z,20461.2
2023-03-11T14:22:39.493Z,15901.7
2023-03-11T14:27:56.420Z,15068.3
2023-03-11T14:33:16.235Z,16104.6
2023-03-11T14:38:33.265Z,14337.5
2023-03-11T14:43:50.077Z,13864.2
2023-03-11T14:49:07.013Z,13607.1
2023-03-11T15:37:54.594Z,3388.8
2023-03-11T15:43:11.284Z,3112.5
2023-03-11T15:48:27.833Z,2998.3
2023-03-11T15:53:46.329Z,3620.8
2023-03-11T15:59:03.705Z,3451.7
2023-03-11T16:04:20.574Z,3327.1
2023-03-11T16:09:37.400Z,3055.8
2023-03-11T16:14:54.117Z,2722.5
2023-03-11T16:20:31.909Z,2263.3
2023-03-11T16:25:49.063Z,2343.8
2023-03-11T16:31:08.472Z,2108.8
2023-03-11T16:36:25.534Z,1877.1
2023-03-11T16:41:42.484Z,1857.1
2023-03-11T16:46:59.423Z,1719.2
2023-03-11T16:52:16.306Z,1546.7
2023-03-11T16:57:35.495Z,1358.3
2023-03-11T17:02:59.923Z,1153.7
2023-03-11T17:08:16.838Z,910.8
2023-03-11T17:13:36.773Z,684.6
2023-03-11T17:18:53.788Z,490.8
2023-03-11T17:24:10.822Z,341.3
2023-03-11T17:29:27.970Z,220.4
2023-03-11T17:40:04.351Z,72.1
2023-03-11T17:45:21.511Z,35.8
2023-03-11T17:50:38.804Z,0.9
2023-03-11T17:55:56.222Z,0
2023-03-11T18:01:21.341Z,0
2023-03-11T18:06:38.954Z,0
2023-03-11T18:11:58.308Z,0
2023-03-11T18:17:18.293Z,0
2023-03-11T18:22:46.592Z,0
2023-03-11T18:28:04.444Z,0
2023-03-11T18:33:21.873Z,0
2023-03-11T18:38:39.162Z,0
2023-03-11T18:43:56.280Z,0
2023-03-11T18:49:13.861Z,0
2023-03-11T18:54:31.109Z,0
2023-03-11T18:59:48.230Z,0
2023-03-11T19:05:05.679Z,0
2023-03-11T19:10:23.102Z,0
2023-03-11T19:26:28.084Z,0
2023-03-11T19:31:51.326Z,0
2023-03-11T19:37:10.695Z,0
2023-03-11T19:42:28.235Z,0
2023-03-11T19:48:03.107Z,0
2023-03-11T19:53:20.716Z,0
2023-03-11T19:58:38.145Z,0
2023-03-11T20:04:16.625Z,0
2023-03-11T20:09:34.368Z,0
2023-03-11T20:14:51.816Z,0
2023-03-11T20:20:09.256Z,0
2023-03-11T20:30:54.178Z,0
2023-03-11T20:36:11.851Z,0
2023-03-11T20:41:29.398Z,0
2023-03-11T20:46:47.005Z,0
2023-03-11T20:52:09.571Z,0
2023-03-11T20:57:27.734Z,0
2023-03-11T21:02:45.634Z,0
2023-03-11T21:08:05.467Z,0
2023-03-11T21:13:23.064Z,0
2023-03-11T21:18:49.810Z,0
2023-03-11T21:24:07.250Z,0
2023-03-11T21:29:24.470Z,0
2023-03-11T21:34:46.346Z,0
2023-03-11T21:40:03.969Z,0
2023-03-11T21:45:21.476Z,0
2023-03-11T21:50:39.275Z,0
2023-03-11T21:55:56.675Z,0
2023-03-11T22:01:14.408Z,0
2023-03-11T22:06:49.178Z,0
2023-03-11T22:12:06.811Z,0
2023-03-11T22:17:24.391Z,0
2023-03-11T22:22:41.984Z,0
2023-03-11T22:28:01.372Z,0
2023-03-11T22:33:18.708Z,0
2023-03-11T22:43:56.533Z,0
2023-03-11T22:49:13.899Z,0
2023-03-11T22:54:31.129Z,0
2023-03-11T22:59:48.534Z,0
2023-03-11T23:05:14.660Z,0
2023-03-11T23:10:32.176Z,0
2023-03-11T23:15:49.564Z,0
2023-03-11T23:21:09.753Z,0
2023-03-11T23:26:27.294Z,0
2023-03-11T23:32:01.759Z,0
2023-03-11T23:37:19.356Z,0
2023-03-11T23:42:36.801Z,0
2023-03-11T23:47:54.044Z,0
2023-03-11T23:53:11.197Z,0
2023-03-11T23:58:28.555Z,0
